createdAt,value
2023-04-22T00:00:11.639Z,9.70
2023-04-22T00:02:38.578Z,9.80
2023-04-22T00:05:08.097Z,11.00
2023-04-22T00:07:35.246Z,10.15
2023-04-22T00:10:02.055Z,10.55
2023-04-22T00:12:29.596Z,10.18
2023-04-22T00:14:56.358Z,10.32
2023-04-22T00:17:23.166Z,9.65
2023-04-22T00:19:50.142Z,9.73
2023-04-22T00:22:18.281Z,10.38
2023-04-22T00:24:45.008Z,11.07
2023-04-22T00:27:11.767Z,10.15
2023-04-22T00:29:38.746Z,9.00
2023-04-22T00:32:05.813Z,10.32
2023-04-22T00:34:32.591Z,10.18
2023-04-22T00:36:59.326Z,9.98
2023-04-22T00:39:27.445Z,9.88
2023-04-22T00:41:57.311Z,10.23
2023-04-22T00:44:25.247Z,9.48
2023-04-22T00:46:52.317Z,10.05
2023-04-22T00:49:20.320Z,9.45
2023-04-22T00:51:47.769Z,10.27
2023-04-22T00:54:14.530Z,9.02
2023-04-22T00:56:42.717Z,9.45
2023-04-22T00:59:10.118Z,10.10
2023-04-22T01:01:37.153Z,11.05
2023-04-22T01:04:04.641Z,9.90
2023-04-22T01:06:31.542Z,10.48
2023-04-22T01:08:58.898Z,9.98
2023-04-22T01:11:25.765Z,10.32
2023-04-22T01:13:53.969Z,11.82
2023-04-22T01:16:21.570Z,11.32
2023-04-22T01:18:48.524Z,10.65
2023-04-22T01:21:15.418Z,9.35
2023-04-22T01:23:45.586Z,10.82
2023-04-22T01:26:12.550Z,10.23
2023-04-22T01:28:39.385Z,10.05
2023-04-22T01:31:06.262Z,10.25
2023-04-22T01:33:34.042Z,10.60
2023-04-22T01:36:01.070Z,10.48
2023-04-22T01:38:27.841Z,11.25
2023-04-22T01:40:56.248Z,10.93
2023-04-22T01:43:23.568Z,11.13
2023-04-22T01:45:50.426Z,11.18
2023-04-22T01:48:17.251Z,10.95
2023-04-22T01:50:44.269Z,12.02
2023-04-22T01:53:11.578Z,11.40
2023-04-22T01:55:39.081Z,10.80
2023-04-22T01:58:07.315Z,10.75
2023-04-22T02:00:34.346Z,10.02
2023-04-22T02:03:01.228Z,11.40
2023-04-22T02:05:28.254Z,11.48
2023-04-22T02:07:55.178Z,11.35
2023-04-22T02:10:22.021Z,12.23
2023-04-22T02:12:48.854Z,12.48
2023-04-22T02:15:16.996Z,12.52
2023-04-22T02:17:43.784Z,13.60
2023-04-22T02:20:12.067Z,12.68
2023-04-22T02:22:39.960Z,13.40
2023-04-22T02:25:08.192Z,12.07
2023-04-22T02:27:36.161Z,13.05
2023-04-22T02:30:03.300Z,13.13
2023-04-22T02:32:31.447Z,13.02
2023-04-22T02:34:58.325Z,13.20
2023-04-22T02:37:25.244Z,11.90
2023-04-22T02:39:51.978Z,11.88
2023-04-22T02:42:18.733Z,12.98
2023-04-22T02:44:45.475Z,12.88
2023-04-22T02:47:12.271Z,12.07
2023-04-22T02:49:40.534Z,14.25
2023-04-22T02:52:07.577Z,16.15
2023-04-22T02:54:34.327Z,14.68
2023-04-22T02:57:01.080Z,16.20
2023-04-22T02:59:28.912Z,15.40
2023-04-22T03:01:55.710Z,14.80
2023-04-22T03:04:22.859Z,14.18
2023-04-22T03:06:51.279Z,15.38
2023-04-22T03:09:18.155Z,16.25
2023-04-22T03:11:44.915Z,14.73
2023-04-22T03:14:11.684Z,15.93
2023-04-22T03:16:38.583Z,16.40
2023-04-22T03:19:05.429Z,14.80
2023-04-22T03:21:32.203Z,15.70
2023-04-22T03:24:00.385Z,15.43
2023-04-22T03:26:27.121Z,15.65
2023-04-22T03:28:53.868Z,15.63
2023-04-22T03:31:20.671Z,16.15
2023-04-22T03:33:48.604Z,17.17
2023-04-22T03:36:15.374Z,16.52
2023-04-22T03:38:42.175Z,16.63
2023-04-22T03:41:10.244Z,17.02
2023-04-22T03:43:37.019Z,16.73
2023-04-22T03:46:03.797Z,16.83
2023-04-22T03:48:30.563Z,16.33
2023-04-22T03:50:57.307Z,16.10
2023-04-22T03:53:24.124Z,17.15
2023-04-22T03:55:50.884Z,16.77
2023-04-22T03:58:19.287Z,16.73
2023-04-22T04:00:46.148Z,17.50
2023-04-22T04:03:13.123Z,17.60
2023-04-22T04:05:40.145Z,18.52
2023-04-22T04:08:06.932Z,18.17
2023-04-22T04:10:33.708Z,18.73
2023-04-22T04:13:00.513Z,17.75
2023-04-22T04:15:28.688Z,17.42
2023-04-22T04:17:55.516Z,18.23
2023-04-22T04:20:22.408Z,16.52
2023-04-22T04:22:49.147Z,18.95
2023-04-22T04:25:16.038Z,18.02
2023-04-22T04:27:42.770Z,17.58
2023-04-22T04:30:10.162Z,18.42
2023-04-22T04:32:38.254Z,18.70
2023-04-22T04:35:05.928Z,18.83
2023-04-22T04:37:32.678Z,18.27
2023-04-22T04:39:59.418Z,18.98
2023-04-22T04:42:26.174Z,19.00
2023-04-22T04:44:53.289Z,19.35
2023-04-22T04:47:20.336Z,19.90
2023-04-22T04:49:48.448Z,20.20
2023-04-22T04:52:15.257Z,19.97
2023-04-22T04:54:42.211Z,21.42
2023-04-22T04:57:08.979Z,21.00
2023-04-22T04:59:35.972Z,20.73
2023-04-22T05:02:02.819Z,21.20
2023-04-22T05:04:30.915Z,21.65
2023-04-22T05:06:59.130Z,23.07
2023-04-22T05:09:26.075Z,22.80
2023-04-22T05:11:52.837Z,23.15
2023-04-22T05:14:19.596Z,23.33
2023-04-22T05:16:46.645Z,23.52
2023-04-22T05:19:13.409Z,22.88
2023-04-22T05:21:40.150Z,22.55
2023-04-22T05:24:09.344Z,22.27
2023-04-22T05:26:37.292Z,21.15
2023-04-22T05:29:04.040Z,23.02
2023-04-22T05:31:31.093Z,22.83
2023-04-22T05:34:00.139Z,23.05
2023-04-22T05:39:00.965Z,21.38
2023-04-22T05:41:31.579Z,22.55
2023-04-22T05:43:59.362Z,23.83
2023-04-22T05:46:26.259Z,23.48
2023-04-22T05:48:53.094Z,24.67
2023-04-22T05:51:19.855Z,25.15
2023-04-22T05:53:46.549Z,25.33
2023-04-22T05:56:14.871Z,26.80
2023-04-22T05:58:42.956Z,27.35
2023-04-22T06:01:09.838Z,26.67
2023-04-22T06:03:37.032Z,26.65
2023-04-22T06:06:06.002Z,26.52
2023-04-22T06:08:33.772Z,28.52
2023-04-22T06:11:00.816Z,29.65
2023-04-22T06:13:34.721Z,30.58
2023-04-22T06:16:03.478Z,31.08
2023-04-22T06:18:30.572Z,34.30
2023-04-22T06:20:57.639Z,36.08
2023-04-22T06:23:27.756Z,35.72
2023-04-22T06:25:58.261Z,41.58
2023-04-22T06:28:25.043Z,34.50
2023-04-22T06:30:51.793Z,24.45
2023-04-22T06:33:21.253Z,19.85
2023-04-22T06:35:48.617Z,16.50
2023-04-22T06:38:15.748Z,15.13
2023-04-22T06:40:42.548Z,16.00
2023-04-22T06:43:09.384Z,15.85
2023-04-22T06:45:36.450Z,14.95
2023-04-22T06:48:03.427Z,15.68
2023-04-22T06:50:31.522Z,15.82
2023-04-22T06:52:58.357Z,15.18
2023-04-22T06:55:25.111Z,14.75
2023-04-22T06:57:51.951Z,14.45
2023-04-22T07:00:18.755Z,14.82
2023-04-22T07:02:45.555Z,13.80
2023-04-22T07:05:12.339Z,14.55
2023-04-22T07:07:40.548Z,13.57
2023-04-22T07:10:08.154Z,15.10
2023-04-22T07:12:34.900Z,14.25
2023-04-22T07:15:01.611Z,14.65
2023-04-22T07:17:28.355Z,14.20
2023-04-22T07:19:55.167Z,14.07
2023-04-22T07:22:21.945Z,14.38
2023-04-22T07:24:50.113Z,13.77
2023-04-22T07:27:16.971Z,14.30
2023-04-22T07:29:43.801Z,14.15
2023-04-22T07:32:10.632Z,12.75
2023-04-22T07:34:37.402Z,13.10
2023-04-22T07:37:04.123Z,13.52
2023-04-22T07:39:30.830Z,12.45
2023-04-22T07:41:59.228Z,12.20
2023-04-22T07:44:25.960Z,13.73
2023-04-22T07:46:52.776Z,12.32
2023-04-22T07:49:19.560Z,13.80
2023-04-22T07:51:46.453Z,13.35
2023-04-22T07:54:13.281Z,12.80
2023-04-22T07:56:40.036Z,12.43
2023-04-22T07:59:08.163Z,11.07
2023-04-22T08:01:34.915Z,12.20
2023-04-22T08:04:03.480Z,11.55
2023-04-22T08:08:57.093Z,11.30
2023-04-22T08:11:23.843Z,10.63
2023-04-22T08:13:50.694Z,11.73
2023-04-22T08:16:19.116Z,11.38
2023-04-22T08:18:45.837Z,11.50
2023-04-22T08:21:12.626Z,11.48
2023-04-22T08:23:39.351Z,12.10
2023-04-22T08:26:06.209Z,12.38
2023-04-22T08:28:33.055Z,12.48
2023-04-22T08:30:59.862Z,12.02
2023-04-22T08:33:28.120Z,11.63
2023-04-22T08:35:54.842Z,11.25
2023-04-22T08:38:22.678Z,11.48
2023-04-22T08:40:49.771Z,12.20
2023-04-22T08:43:16.774Z,11.63
2023-04-22T08:45:44.665Z,11.02
2023-04-22T08:48:12.410Z,10.60
2023-04-22T08:50:41.152Z,10.37
2023-04-22T08:55:35.898Z,10.95
2023-04-22T08:58:04.490Z,10.18
2023-04-22T09:00:31.705Z,10.10
2023-04-22T09:03:01.605Z,10.23
2023-04-22T09:05:29.178Z,10.20
2023-04-22T09:07:57.570Z,10.35
2023-04-22T09:10:24.405Z,9.82
2023-04-22T09:12:51.802Z,9.88
2023-04-22T09:15:18.747Z,9.55
2023-04-22T09:17:45.522Z,6.22
2023-04-22T09:20:12.410Z,9.52
2023-04-22T09:22:41.169Z,9.73
2023-04-22T09:27:41.482Z,9.13
2023-04-22T09:30:09.748Z,10.20
2023-04-22T09:32:36.601Z,11.00
2023-04-22T09:35:03.652Z,9.20
2023-04-22T09:37:39.294Z,9.88
2023-04-22T09:40:19.008Z,8.75
2023-04-22T09:42:49.128Z,9.60
2023-04-22T09:45:25.839Z,8.98
2023-04-22T09:47:53.466Z,9.65
2023-04-22T09:50:20.727Z,9.23
2023-04-22T09:52:55.570Z,9.25
2023-04-22T09:55:25.176Z,9.57
2023-04-22T09:57:52.888Z,9.05
2023-04-22T10:00:20.159Z,8.73
2023-04-22T10:02:47.061Z,8.65
2023-04-22T10:05:13.996Z,9.25
2023-04-22T10:07:41.319Z,9.27
2023-04-22T10:10:09.651Z,9.10
2023-04-22T10:12:38.922Z,9.15
2023-04-22T10:15:06.663Z,9.55
2023-04-22T10:17:36.192Z,7.93
2023-04-22T10:20:07.244Z,8.10
2023-04-22T10:22:34.796Z,8.23
2023-04-22T10:25:02.099Z,8.10
2023-04-22T10:27:29.010Z,7.28
2023-04-22T10:29:57.132Z,7.90
2023-04-22T10:32:26.151Z,8.48
2023-04-22T10:35:09.910Z,8.18
2023-04-22T10:37:36.895Z,7.75
2023-04-22T10:40:16.686Z,8.27
2023-04-22T10:42:49.099Z,7.53
2023-04-22T10:45:17.662Z,8.10
2023-04-22T10:47:45.040Z,7.75
2023-04-22T10:50:23.625Z,8.30
2023-04-22T10:55:18.981Z,8.48
2023-04-22T10:57:47.421Z,7.20
2023-04-22T11:00:24.596Z,7.20
2023-04-22T11:02:53.430Z,7.72
2023-04-22T11:05:23.436Z,8.18
2023-04-22T11:07:54.632Z,8.15
2023-04-22T11:10:38.973Z,7.60
2023-04-22T11:13:05.939Z,7.13
2023-04-22T11:15:36.205Z,7.25
2023-04-22T11:18:03.383Z,5.97
2023-04-22T11:20:30.482Z,6.03
2023-04-22T11:22:58.186Z,6.20
2023-04-22T11:25:25.926Z,6.28
2023-04-22T11:27:53.327Z,6.28
2023-04-22T11:30:21.617Z,5.82
2023-04-22T11:32:51.228Z,5.97
2023-04-22T11:35:20.182Z,5.78
2023-04-22T11:37:48.657Z,6.22
2023-04-22T11:40:28.865Z,6.00
2023-04-22T11:42:57.665Z,6.22
2023-04-22T11:45:25.428Z,6.17
2023-04-22T11:47:53.652Z,6.53
2023-04-22T11:50:26.155Z,7.00
2023-04-22T11:52:54.504Z,6.38
2023-04-22T11:55:23.234Z,6.32
2023-04-22T12:00:28.087Z,7.28
2023-04-22T12:02:58.380Z,7.07
2023-04-22T12:05:39.132Z,6.95
2023-04-22T12:08:10.820Z,7.18
2023-04-22T12:10:42.395Z,8.15
2023-04-22T12:13:09.749Z,6.85
2023-04-22T12:15:42.284Z,6.85
2023-04-22T12:18:11.004Z,7.90
2023-04-22T12:20:38.717Z,7.00
2023-04-22T12:23:05.892Z,8.38
2023-04-22T12:25:32.643Z,7.75
2023-04-22T12:27:59.628Z,8.52
2023-04-22T12:30:26.461Z,7.53
2023-04-22T12:32:54.313Z,7.28
2023-04-22T12:35:22.387Z,9.95
2023-04-22T12:37:50.575Z,9.68
2023-04-22T12:42:44.669Z,10.45
2023-04-22T12:45:11.830Z,9.98
2023-04-22T12:47:38.793Z,11.45
2023-04-22T12:50:06.570Z,11.50
2023-04-22T12:52:35.607Z,10.65
2023-04-22T12:55:02.379Z,11.00
2023-04-22T12:57:29.189Z,10.82
2023-04-22T12:59:55.994Z,8.98
2023-04-22T13:02:22.825Z,10.07
2023-04-22T13:04:49.663Z,10.43
2023-04-22T13:07:16.525Z,10.65
2023-04-22T13:09:44.632Z,9.25
2023-04-22T13:12:11.628Z,11.65
2023-04-22T13:14:38.444Z,9.88
2023-04-22T13:17:05.204Z,12.68
2023-04-22T13:19:31.946Z,12.60
2023-04-22T13:21:58.718Z,12.35
2023-04-22T13:24:25.521Z,13.90
2023-04-22T13:26:53.617Z,15.07
2023-04-22T13:29:20.380Z,15.05
2023-04-22T13:31:47.216Z,17.17
2023-04-22T13:34:13.974Z,15.75
2023-04-22T13:36:40.705Z,12.77
2023-04-22T13:39:08.994Z,15.65
2023-04-22T13:41:35.783Z,16.42
2023-04-22T13:44:03.887Z,16.25
2023-04-22T13:46:30.843Z,16.98
2023-04-22T13:48:57.593Z,18.20
2023-04-22T13:51:24.457Z,13.25
2023-04-22T13:53:51.187Z,15.27
2023-04-22T13:56:17.938Z,16.17
2023-04-22T13:58:45.862Z,14.85
2023-04-22T14:01:16.532Z,15.50
2023-04-22T14:03:43.814Z,13.05
2023-04-22T14:06:10.880Z,15.75
2023-04-22T14:08:38.635Z,13.57
2023-04-22T14:11:07.588Z,14.20
2023-04-22T14:16:03.243Z,13.03
2023-04-22T14:18:31.325Z,12.48
2023-04-22T14:20:58.139Z,14.27
2023-04-22T14:23:24.863Z,14.50
2023-04-22T14:25:51.630Z,13.10
2023-04-22T14:28:18.438Z,13.38
2023-04-22T14:30:45.226Z,13.90
2023-04-22T14:33:12.026Z,13.32
2023-04-22T14:35:40.131Z,10.65
2023-04-22T14:38:09.901Z,11.85
2023-04-22T14:40:36.972Z,12.63
2023-04-22T14:43:05.989Z,12.23
2023-04-22T14:45:33.076Z,12.10
2023-04-22T14:48:00.439Z,13.57
2023-04-22T14:50:27.830Z,13.55
2023-04-22T14:52:56.232Z,11.50
2023-04-22T14:55:24.262Z,12.23
2023-04-22T14:57:54.870Z,11.65
2023-04-22T15:00:21.753Z,12.63
2023-04-22T15:02:48.706Z,12.18
2023-04-22T15:05:15.713Z,12.13
2023-04-22T15:07:42.458Z,12.63
2023-04-22T15:10:11.055Z,12.70
2023-04-22T15:12:37.819Z,13.40
2023-04-22T15:15:05.352Z,11.70
2023-04-22T15:17:32.171Z,12.60
2023-04-22T15:19:59.731Z,12.75
2023-04-22T15:22:26.436Z,11.63
2023-04-22T15:24:53.200Z,10.45
2023-04-22T15:27:21.295Z,11.85
2023-04-22T15:29:48.136Z,13.27
2023-04-22T15:32:15.962Z,12.05
2023-04-22T15:34:42.700Z,12.68
2023-04-22T15:37:09.803Z,12.98
2023-04-22T15:39:39.270Z,10.88
2023-04-22T15:42:06.644Z,10.98
2023-04-22T15:44:34.776Z,11.35
2023-04-22T15:47:01.625Z,11.95
2023-04-22T15:49:28.439Z,11.70
2023-04-22T15:51:55.223Z,14.15
2023-04-22T15:54:22.036Z,12.55
2023-04-22T15:56:48.754Z,13.27
2023-04-22T15:59:15.533Z,13.85
2023-04-22T16:01:47.595Z,13.93
2023-04-22T16:04:15.958Z,13.43
2023-04-22T16:06:42.858Z,12.30
2023-04-22T16:09:10.685Z,13.93
2023-04-22T16:11:37.401Z,13.43
2023-04-22T16:14:04.237Z,14.05
2023-04-22T16:16:32.316Z,14.52
2023-04-22T16:19:00.518Z,12.45
2023-04-22T16:21:27.293Z,11.02
2023-04-22T16:23:55.332Z,12.77
2023-04-22T16:26:22.112Z,13.50
2023-04-22T16:28:48.839Z,12.07
2023-04-22T16:31:15.699Z,15.40
2023-04-22T16:33:42.739Z,15.35
2023-04-22T16:36:12.009Z,16.83
2023-04-22T16:38:38.833Z,16.80
2023-04-22T16:41:05.859Z,17.10
2023-04-22T16:43:32.636Z,17.90
2023-04-22T16:45:59.553Z,15.90
2023-04-22T16:48:26.493Z,18.67
2023-04-22T16:50:54.360Z,17.73
2023-04-22T16:53:22.477Z,18.67
2023-04-22T16:55:49.191Z,19.90
2023-04-22T16:58:15.985Z,20.00
2023-04-22T17:00:42.737Z,21.77
2023-04-22T17:03:11.659Z,20.05
2023-04-22T17:08:05.182Z,17.63
2023-04-22T17:10:36.636Z,17.80
2023-04-22T17:13:05.776Z,19.58
2023-04-22T17:15:33.636Z,19.50
2023-04-22T17:18:00.735Z,21.20
2023-04-22T17:20:29.714Z,19.88
2023-04-22T17:22:56.438Z,19.63
2023-04-22T17:25:23.149Z,20.38
2023-04-22T17:27:51.214Z,19.05
2023-04-22T17:30:17.921Z,19.50
2023-04-22T17:32:44.707Z,15.43
2023-04-22T17:35:11.451Z,16.25
2023-04-22T17:37:38.318Z,17.63
2023-04-22T17:40:06.245Z,18.63
2023-04-22T17:42:44.609Z,18.38
2023-04-22T17:45:13.882Z,19.63
2023-04-22T17:47:40.698Z,17.52
2023-04-22T17:50:08.472Z,20.88
2023-04-22T17:52:35.880Z,18.98
2023-04-22T17:55:02.642Z,19.80
2023-04-22T17:57:29.431Z,20.08
2023-04-22T17:59:56.196Z,20.63
2023-04-22T18:02:24.642Z,19.63
2023-04-22T18:04:51.438Z,19.10
2023-04-22T18:07:18.187Z,19.20
2023-04-22T18:09:45.160Z,19.60
2023-04-22T18:12:12.086Z,20.83
2023-04-22T18:14:38.801Z,21.30
2023-04-22T18:17:05.615Z,20.48
2023-04-22T18:19:33.993Z,18.17
2023-04-22T18:22:00.864Z,19.08
2023-04-22T18:24:27.935Z,20.00
2023-04-22T18:26:54.690Z,19.50
2023-04-22T18:29:21.469Z,22.08
2023-04-22T18:31:48.240Z,17.52
2023-04-22T18:34:15.349Z,20.63
2023-04-22T18:36:43.539Z,20.63
2023-04-22T18:39:10.362Z,20.85
2023-04-22T18:41:37.210Z,14.55
2023-04-22T18:44:04.004Z,17.63
2023-04-22T18:46:30.795Z,20.23
2023-04-22T18:48:59.800Z,20.05
2023-04-22T18:53:54.640Z,20.90
2023-04-22T18:56:21.491Z,22.67
2023-04-22T18:58:48.370Z,22.52
2023-04-22T19:01:15.260Z,23.55
2023-04-22T19:03:43.525Z,22.67
2023-04-22T19:06:11.341Z,23.10
2023-04-22T19:08:38.338Z,24.02
2023-04-22T19:11:06.513Z,24.35
2023-04-22T19:13:33.338Z,23.80
2023-04-22T19:16:02.850Z,21.40
2023-04-22T19:18:29.699Z,24.38
2023-04-22T19:20:56.526Z,23.83
2023-04-22T19:23:23.428Z,24.80
2023-04-22T19:25:50.276Z,24.30
2023-04-22T19:28:18.369Z,25.58
2023-04-22T19:30:45.286Z,24.50
2023-04-22T19:33:12.380Z,25.67
2023-04-22T19:35:39.098Z,24.52
2023-04-22T19:38:06.136Z,24.30
2023-04-22T19:40:32.980Z,22.48
2023-04-22T19:42:59.768Z,24.65
2023-04-22T19:45:28.061Z,26.10
2023-04-22T19:47:55.275Z,23.27
2023-04-22T19:50:23.069Z,25.67
2023-04-22T19:52:50.823Z,27.10
2023-04-22T19:55:18.593Z,22.60
2023-04-22T19:57:46.324Z,24.83
2023-04-22T20:00:13.958Z,25.75
2023-04-22T20:02:42.791Z,26.48
2023-04-22T20:05:10.428Z,26.88
2023-04-22T20:07:38.657Z,27.38
2023-04-22T20:10:07.547Z,28.23
2023-04-22T20:15:02.560Z,25.17
2023-04-22T20:17:29.813Z,26.30
2023-04-22T20:19:58.295Z,25.63
2023-04-22T20:22:25.524Z,28.73
2023-04-22T20:24:59.858Z,27.23
2023-04-22T20:27:28.788Z,27.02
2023-04-22T20:29:56.783Z,27.92
2023-04-22T20:32:23.833Z,28.25
2023-04-22T20:34:51.369Z,38.00
2023-04-22T20:37:20.645Z,33.63
2023-04-22T20:39:48.262Z,27.08
2023-04-22T20:42:15.037Z,31.30
2023-04-22T20:44:42.023Z,32.08
2023-04-22T20:47:09.153Z,29.63
2023-04-22T20:49:35.881Z,30.88
2023-04-22T20:52:02.643Z,32.22
2023-04-22T20:54:30.779Z,33.92
2023-04-22T20:56:57.519Z,32.97
2023-04-22T20:59:24.317Z,32.15
2023-04-22T21:01:52.865Z,31.33
2023-04-22T21:04:21.144Z,30.20
2023-04-22T21:06:49.311Z,27.98
2023-04-22T21:09:17.256Z,27.40
2023-04-22T21:11:46.021Z,26.15
2023-04-22T21:14:13.198Z,25.63
2023-04-22T21:16:42.721Z,30.63
2023-04-22T21:19:09.809Z,35.60
2023-04-22T21:21:37.242Z,29.98
2023-04-22T21:24:04.949Z,29.77
2023-04-22T21:26:32.180Z,30.10
2023-04-22T21:29:00.747Z,29.73
2023-04-22T21:31:28.820Z,31.25
2023-04-22T21:33:55.558Z,31.15
2023-04-22T21:36:22.336Z,31.27
2023-04-22T21:38:49.370Z,29.58
2023-04-22T21:41:16.352Z,30.45
2023-04-22T21:43:43.346Z,29.95
2023-04-22T21:46:11.564Z,30.35
2023-04-22T21:48:38.347Z,28.30
2023-04-22T21:51:05.122Z,27.85
2023-04-22T21:53:33.516Z,27.48
2023-04-22T21:56:00.299Z,26.05
2023-04-22T21:58:27.002Z,28.83
2023-04-22T22:00:53.743Z,26.40
2023-04-22T22:03:21.937Z,24.33
2023-04-22T22:05:48.820Z,26.63
2023-04-22T22:08:15.616Z,24.45
2023-04-22T22:10:42.520Z,24.70
2023-04-22T22:13:15.855Z,25.02
2023-04-22T22:15:42.900Z,28.48
2023-04-22T22:18:09.648Z,28.45
2023-04-22T22:20:37.823Z,26.23
2023-04-22T22:23:04.566Z,28.02
2023-04-22T22:25:31.338Z,26.40
2023-04-22T22:27:58.126Z,28.85
2023-04-22T22:30:24.895Z,29.52
2023-04-22T22:32:51.622Z,28.35
2023-04-22T22:35:18.411Z,31.98
2023-04-22T22:37:46.438Z,27.38
2023-04-22T22:40:13.262Z,30.80
2023-04-22T22:42:40.238Z,27.33
2023-04-22T22:45:08.148Z,31.95
2023-04-22T22:47:35.524Z,30.98
2023-04-22T22:50:02.395Z,27.77
2023-04-22T22:52:29.405Z,30.92
2023-04-22T22:54:57.491Z,29.30
2023-04-22T22:57:24.266Z,29.30
2023-04-22T22:59:51.136Z,30.08
2023-04-22T23:02:18.402Z,32.38
2023-04-22T23:04:45.733Z,32.47
2023-04-22T23:07:12.795Z,31.27
2023-04-22T23:09:39.575Z,31.80
2023-04-22T23:12:07.708Z,34.17
2023-04-22T23:14:34.719Z,34.33
2023-04-22T23:17:04.377Z,29.67
2023-04-22T23:19:32.191Z,33.05
2023-04-22T23:21:59.265Z,29.92
2023-04-22T23:24:26.846Z,34.28
2023-04-22T23:27:00.533Z,32.03
2023-04-22T23:29:29.444Z,34.30
2023-04-22T23:34:23.891Z,28.75
2023-04-22T23:36:51.264Z,31.38
2023-04-22T23:39:18.173Z,35.08
2023-04-22T23:41:44.985Z,33.38
2023-04-22T23:44:11.736Z,33.60
2023-04-22T23:46:40.065Z,35.20
2023-04-22T23:49:07.077Z,35.17
2023-04-22T23:51:34.282Z,34.28
2023-04-22T23:54:01.069Z,35.03
2023-04-22T23:56:28.563Z,35.78
2023-04-22T23:58:55.955Z,36.92
